sensor_id;sensor_type;location;lat;lon;timestamp;pressure;altitude;pressure_sealevel;temperature;humidity
70916;BME280;58557;50.982;-3.222;2022-11-20T00:01:42;100223.85;;;9.75;68.25
70916;BME280;58557;50.982;-3.222;2022-11-20T00:04:09;100221.66;;;10.45;66.96
70916;BME280;58557;50.982;-3.222;2022-11-20T00:06:32;100224.86;;;9.13;69.87
70916;BME280;58557;50.982;-3.222;2022-11-20T00:08:59;100226.54;;;9.02;70.39
70916;BME280;58557;50.982;-3.222;2022-11-20T00:11:25;100221.56;;;9.63;69.57
70916;BME280;58557;50.982;-3.222;2022-11-20T00:13:51;100216.67;;;10.03;69.73
70916;BME280;58557;50.982;-3.222;2022-11-20T00:16:18;100211.27;;;9.22;71.95
70916;BME280;58557;50.982;-3.222;2022-11-20T00:18:40;100196.97;;;9.49;71.17
70916;BME280;58557;50.982;-3.222;2022-11-20T00:21:12;100197.57;;;8.95;71.89
70916;BME280;58557;50.982;-3.222;2022-11-20T00:23:32;100192.96;;;9.61;70.04
70916;BME280;58557;50.982;-3.222;2022-11-20T00:26:00;100195.16;;;9.58;71.48
70916;BME280;58557;50.982;-3.222;2022-11-20T00:28:27;100200.55;;;9.50;72.35
70916;BME280;58557;50.982;-3.222;2022-11-20T00:30:48;100192.96;;;8.99;72.71
70916;BME280;58557;50.982;-3.222;2022-11-20T00:33:13;100184.12;;;8.81;74.26
70916;BME280;58557;50.982;-3.222;2022-11-20T00:35:44;100181.74;;;8.78;74.96
70916;BME280;58557;50.982;-3.222;2022-11-20T00:38:09;100181.47;;;8.76;75.04
70916;BME280;58557;50.982;-3.222;2022-11-20T00:40:30;100178.16;;;8.47;76.27
70916;BME280;58557;50.982;-3.222;2022-11-20T00:42:56;100171.63;;;9.35;73.59
70916;BME280;58557;50.982;-3.222;2022-11-20T00:45:22;100170.42;;;9.08;74.54
70916;BME280;58557;50.982;-3.222;2022-11-20T00:47:48;100164.46;;;9.19;74.20
70916;BME280;58557;50.982;-3.222;2022-11-20T00:50:13;100164.60;;;8.85;74.91
70916;BME280;58557;50.982;-3.222;2022-11-20T00:52:39;100157.43;;;8.81;77.36
70916;BME280;58557;50.982;-3.222;2022-11-20T00:55:04;100155.81;;;8.75;77.14
70916;BME280;58557;50.982;-3.222;2022-11-20T00:57:30;100149.66;;;8.61;78.35
70916;BME280;58557;50.982;-3.222;2022-11-20T00:59:54;100145.20;;;8.61;78.15
70916;BME280;58557;50.982;-3.222;2022-11-20T01:02:20;100142.05;;;8.56;79.05
70916;BME280;58557;50.982;-3.222;2022-11-20T01:04:50;100141.23;;;8.66;78.55
70916;BME280;58557;50.982;-3.222;2022-11-20T01:07:11;100137.08;;;9.68;74.29
70916;BME280;58557;50.982;-3.222;2022-11-20T01:09:36;100131.06;;;8.73;76.68
70916;BME280;58557;50.982;-3.222;2022-11-20T01:12:03;100128.61;;;8.76;77.25
70916;BME280;58557;50.982;-3.222;2022-11-20T01:14:32;100123.42;;;9.14;77.47
70916;BME280;58557;50.982;-3.222;2022-11-20T01:16:58;100125.28;;;8.56;78.96
70916;BME280;58557;50.982;-3.222;2022-11-20T01:19:23;100125.25;;;9.37;75.31
70916;BME280;58557;50.982;-3.222;2022-11-20T01:21:45;100114.46;;;9.96;73.64
70916;BME280;58557;50.982;-3.222;2022-11-20T01:24:13;100103.66;;;9.84;74.13
70916;BME280;58557;50.982;-3.222;2022-11-20T01:26:40;100100.05;;;9.36;75.36
70916;BME280;58557;50.982;-3.222;2022-11-20T01:29:06;100100.56;;;9.67;74.75
70916;BME280;58557;50.982;-3.222;2022-11-20T01:31:31;100103.84;;;9.13;76.29
70916;BME280;58557;50.982;-3.222;2022-11-20T01:33:57;100095.79;;;9.58;75.12
70916;BME280;58557;50.982;-3.222;2022-11-20T01:36:18;100094.57;;;9.83;74.55
70916;BME280;58557;50.982;-3.222;2022-11-20T01:38:42;100090.43;;;9.13;75.73
70916;BME280;58557;50.982;-3.222;2022-11-20T01:41:07;100092.79;;;10.12;75.91
70916;BME280;58557;50.982;-3.222;2022-11-20T01:43:33;100096.03;;;8.86;78.35
70916;BME280;58557;50.982;-3.222;2022-11-20T01:46:03;100092.11;;;9.71;76.23
70916;BME280;58557;50.982;-3.222;2022-11-20T01:48:25;100082.53;;;9.64;75.82
70916;BME280;58557;50.982;-3.222;2022-11-20T01:50:49;100078.35;;;9.51;76.87
70916;BME280;58557;50.982;-3.222;2022-11-20T01:53:15;100082.24;;;9.42;77.27
70916;BME280;58557;50.982;-3.222;2022-11-20T01:55:48;100089.57;;;9.34;79.65
70916;BME280;58557;50.982;-3.222;2022-11-20T01:58:09;100083.00;;;10.08;76.54
70916;BME280;58557;50.982;-3.222;2022-11-20T02:00:30;100088.14;;;9.65;76.62
70916;BME280;58557;50.982;-3.222;2022-11-20T02:02:58;100090.72;;;10.84;72.52
70916;BME280;58557;50.982;-3.222;2022-11-20T02:05:25;100094.92;;;10.36;73.01
70916;BME280;58557;50.982;-3.222;2022-11-20T02:07:48;100092.35;;;10.56;71.71
70916;BME280;58557;50.982;-3.222;2022-11-20T02:10:17;100089.91;;;11.42;70.55
70916;BME280;58557;50.982;-3.222;2022-11-20T02:12:43;100090.96;;;11.17;69.69
70916;BME280;58557;50.982;-3.222;2022-11-20T02:15:09;100092.22;;;9.45;76.03
70916;BME280;58557;50.982;-3.222;2022-11-20T02:17:29;100094.92;;;10.18;75.78
70916;BME280;58557;50.982;-3.222;2022-11-20T02:19:55;100102.19;;;9.74;74.86
70916;BME280;58557;50.982;-3.222;2022-11-20T02:22:24;100091.14;;;10.31;74.27
70916;BME280;58557;50.982;-3.222;2022-11-20T02:24:48;100085.78;;;10.91;72.63
70916;BME280;58557;50.982;-3.222;2022-11-20T02:27:12;100088.31;;;11.60;69.79
70916;BME280;58557;50.982;-3.222;2022-11-20T02:29:47;100096.39;;;10.19;72.68
70916;BME280;58557;50.982;-3.222;2022-11-20T02:32:03;100093.11;;;11.05;69.71
70916;BME280;58557;50.982;-3.222;2022-11-20T02:34:33;100090.47;;;9.77;74.43
70916;BME280;58557;50.982;-3.222;2022-11-20T02:36:59;100085.92;;;10.47;70.86
70916;BME280;58557;50.982;-3.222;2022-11-20T02:39:19;100093.77;;;9.72;73.86
70916;BME280;58557;50.982;-3.222;2022-11-20T02:41:49;100091.18;;;10.84;71.83
70916;BME280;58557;50.982;-3.222;2022-11-20T02:44:09;100095.97;;;11.34;69.54
70916;BME280;58557;50.982;-3.222;2022-11-20T02:46:35;100095.73;;;11.78;67.58
70916;BME280;58557;50.982;-3.222;2022-11-20T02:49:06;100092.66;;;12.26;64.51
70916;BME280;58557;50.982;-3.222;2022-11-20T02:51:27;100093.20;;;12.34;65.51
70916;BME280;58557;50.982;-3.222;2022-11-20T02:53:52;100087.13;;;12.24;65.76
70916;BME280;58557;50.982;-3.222;2022-11-20T02:56:18;100079.37;;;13.15;63.13
70916;BME280;58557;50.982;-3.222;2022-11-20T02:58:49;100071.25;;;13.50;60.85
70916;BME280;58557;50.982;-3.222;2022-11-20T03:01:09;100072.97;;;13.15;59.01
70916;BME280;58557;50.982;-3.222;2022-11-20T03:03:35;100073.00;;;13.32;58.34
70916;BME280;58557;50.982;-3.222;2022-11-20T03:06:06;100073.42;;;12.51;61.81
70916;BME280;58557;50.982;-3.222;2022-11-20T03:08:27;100079.66;;;12.14;62.05
70916;BME280;58557;50.982;-3.222;2022-11-20T03:10:53;100081.14;;;11.76;62.61
70916;BME280;58557;50.982;-3.222;2022-11-20T03:13:18;100075.61;;;12.03;63.68
70916;BME280;58557;50.982;-3.222;2022-11-20T03:15:43;100077.02;;;11.27;64.41
70916;BME280;58557;50.982;-3.222;2022-11-20T03:18:09;100076.71;;;10.92;63.42
70916;BME280;58557;50.982;-3.222;2022-11-20T03:20:34;100082.49;;;12.76;60.70
70916;BME280;58557;50.982;-3.222;2022-11-20T03:23:01;100079.13;;;13.75;57.54
70916;BME280;58557;50.982;-3.222;2022-11-20T03:25:30;100068.93;;;13.75;56.05
70916;BME280;58557;50.982;-3.222;2022-11-20T03:27:55;100062.69;;;13.74;56.60
70916;BME280;58557;50.982;-3.222;2022-11-20T03:30:17;100060.32;;;13.64;56.25
70916;BME280;58557;50.982;-3.222;2022-11-20T03:32:41;100064.38;;;13.80;55.06
70916;BME280;58557;50.982;-3.222;2022-11-20T03:35:12;100070.96;;;14.36;54.92
70916;BME280;58557;50.982;-3.222;2022-11-20T03:37:37;100071.83;;;14.22;54.83
70916;BME280;58557;50.982;-3.222;2022-11-20T03:40:03;100077.57;;;13.15;57.56
70916;BME280;58557;50.982;-3.222;2022-11-20T03:42:23;100083.51;;;12.93;57.08
70916;BME280;58557;50.982;-3.222;2022-11-20T03:44:49;100088.00;;;13.24;57.54
70916;BME280;58557;50.982;-3.222;2022-11-20T03:47:14;100089.03;;;13.13;57.74
70916;BME280;58557;50.982;-3.222;2022-11-20T03:49:40;100084.53;;;13.04;57.84
70916;BME280;58557;50.982;-3.222;2022-11-20T03:52:05;100083.07;;;11.77;60.35
70916;BME280;58557;50.982;-3.222;2022-11-20T03:54:31;100074.30;;;13.51;57.32
70916;BME280;58557;50.982;-3.222;2022-11-20T03:57:01;100070.25;;;13.21;57.25
70916;BME280;58557;50.982;-3.222;2022-11-20T03:59:21;100066.81;;;13.56;56.79
70916;BME280;58557;50.982;-3.222;2022-11-20T04:01:47;100067.64;;;13.23;57.74
70916;BME280;58557;50.982;-3.222;2022-11-20T04:04:18;100068.58;;;12.84;58.52
70916;BME280;58557;50.982;-3.222;2022-11-20T04:06:38;100069.05;;;13.21;57.80
70916;BME280;58557;50.982;-3.222;2022-11-20T04:09:04;100065.41;;;12.82;56.18
70916;BME280;58557;50.982;-3.222;2022-11-20T04:11:35;100071.04;;;13.15;55.68
70916;BME280;58557;50.982;-3.222;2022-11-20T04:14:01;100071.84;;;13.36;55.14
70916;BME280;58557;50.982;-3.222;2022-11-20T04:16:25;100070.61;;;13.27;54.62
70916;BME280;58557;50.982;-3.222;2022-11-20T04:18:52;100079.69;;;12.75;56.45
70916;BME280;58557;50.982;-3.222;2022-11-20T04:21:15;100086.42;;;13.10;55.83
70916;BME280;58557;50.982;-3.222;2022-11-20T04:23:41;100084.00;;;12.51;55.72
70916;BME280;58557;50.982;-3.222;2022-11-20T04:26:02;100086.13;;;13.13;53.67
70916;BME280;58557;50.982;-3.222;2022-11-20T04:28:32;100087.53;;;12.58;55.68
70916;BME280;58557;50.982;-3.222;2022-11-20T04:31:02;100091.30;;;12.38;55.87
70916;BME280;58557;50.982;-3.222;2022-11-20T04:33:23;100095.20;;;13.03;55.33
70916;BME280;58557;50.982;-3.222;2022-11-20T04:35:44;100095.91;;;12.60;54.31
70916;BME280;58557;50.982;-3.222;2022-11-20T04:38:08;100091.82;;;11.25;61.00
70916;BME280;58557;50.982;-3.222;2022-11-20T04:40:34;100098.24;;;12.74;55.28
70916;BME280;58557;50.982;-3.222;2022-11-20T04:43:00;100096.88;;;12.54;55.15
70916;BME280;58557;50.982;-3.222;2022-11-20T04:45:24;100095.78;;;11.60;58.63
70916;BME280;58557;50.982;-3.222;2022-11-20T04:47:50;100102.61;;;12.16;57.70
70916;BME280;58557;50.982;-3.222;2022-11-20T04:50:21;100107.85;;;12.15;56.64
70916;BME280;58557;50.982;-3.222;2022-11-20T04:52:42;100105.19;;;11.46;57.72
70916;BME280;58557;50.982;-3.222;2022-11-20T04:55:08;100104.16;;;12.23;56.79
70916;BME280;58557;50.982;-3.222;2022-11-20T04:57:37;100104.96;;;12.14;56.83
70916;BME280;58557;50.982;-3.222;2022-11-20T04:59:58;100109.24;;;12.25;56.27
70916;BME280;58557;50.982;-3.222;2022-11-20T05:02:32;100111.55;;;12.11;56.10
70916;BME280;58557;50.982;-3.222;2022-11-20T05:04:54;100108.48;;;11.41;56.46
70916;BME280;58557;50.982;-3.222;2022-11-20T05:07:16;100112.87;;;11.20;56.24
70916;BME280;58557;50.982;-3.222;2022-11-20T05:09:39;100113.02;;;10.05;60.27
70916;BME280;58557;50.982;-3.222;2022-11-20T05:12:10;100115.80;;;11.09;57.99
70916;BME280;58557;50.982;-3.222;2022-11-20T05:14:31;100123.32;;;11.45;57.51
70916;BME280;58557;50.982;-3.222;2022-11-20T05:16:56;100128.44;;;10.77;58.56
70916;BME280;58557;50.982;-3.222;2022-11-20T05:19:22;100131.25;;;10.72;60.22
70916;BME280;58557;50.982;-3.222;2022-11-20T05:21:53;100135.55;;;9.79;62.88
70916;BME280;58557;50.982;-3.222;2022-11-20T05:24:14;100148.52;;;10.95;58.26
70916;BME280;58557;50.982;-3.222;2022-11-20T05:26:39;100163.49;;;10.90;58.19
70916;BME280;58557;50.982;-3.222;2022-11-20T05:29:10;100163.60;;;11.24;57.78
70916;BME280;58557;50.982;-3.222;2022-11-20T05:31:34;100165.67;;;9.41;61.18
70916;BME280;58557;50.982;-3.222;2022-11-20T05:33:55;100167.47;;;11.31;58.40
70916;BME280;58557;50.982;-3.222;2022-11-20T05:36:25;100166.04;;;11.38;56.85
70916;BME280;58557;50.982;-3.222;2022-11-20T05:38:50;100168.31;;;10.64;58.14
70916;BME280;58557;50.982;-3.222;2022-11-20T05:41:12;100168.50;;;9.78;62.11
70916;BME280;58557;50.982;-3.222;2022-11-20T05:43:37;100170.08;;;10.40;59.80
70916;BME280;58557;50.982;-3.222;2022-11-20T05:46:01;100171.43;;;11.19;57.94
70916;BME280;58557;50.982;-3.222;2022-11-20T05:48:27;100168.13;;;11.09;58.06
70916;BME280;58557;50.982;-3.222;2022-11-20T05:50:52;100162.32;;;11.10;55.67
70916;BME280;58557;50.982;-3.222;2022-11-20T05:53:22;100164.66;;;10.72;57.70
70916;BME280;58557;50.982;-3.222;2022-11-20T05:55:57;100161.86;;;10.96;56.30
70916;BME280;58557;50.982;-3.222;2022-11-20T05:58:07;100154.99;;;10.10;58.11
70916;BME280;58557;50.982;-3.222;2022-11-20T06:00:33;100156.15;;;10.99;55.71
70916;BME280;58557;50.982;-3.222;2022-11-20T06:03:03;100153.98;;;11.24;56.60
70916;BME280;58557;50.982;-3.222;2022-11-20T06:05:26;100154.23;;;11.24;55.01
70916;BME280;58557;50.982;-3.222;2022-11-20T06:07:51;100157.92;;;11.60;55.33
70916;BME280;58557;50.982;-3.222;2022-11-20T06:10:14;100158.57;;;11.41;55.33
70916;BME280;58557;50.982;-3.222;2022-11-20T06:12:44;100156.73;;;11.36;55.22
70916;BME280;58557;50.982;-3.222;2022-11-20T06:15:10;100155.99;;;11.62;54.15
70916;BME280;58557;50.982;-3.222;2022-11-20T06:17:31;100161.81;;;11.68;54.00
70916;BME280;58557;50.982;-3.222;2022-11-20T06:20:01;100162.87;;;10.40;57.10
70916;BME280;58557;50.982;-3.222;2022-11-20T06:22:22;100162.90;;;10.76;56.29
70916;BME280;58557;50.982;-3.222;2022-11-20T06:24:52;100159.89;;;11.37;54.69
70916;BME280;58557;50.982;-3.222;2022-11-20T06:27:12;100159.24;;;11.66;53.95
70916;BME280;58557;50.982;-3.222;2022-11-20T06:29:37;100159.72;;;11.33;53.37
70916;BME280;58557;50.982;-3.222;2022-11-20T06:32:03;100154.02;;;11.24;53.71
70916;BME280;58557;50.982;-3.222;2022-11-20T06:34:28;100152.93;;;11.12;55.03
70916;BME280;58557;50.982;-3.222;2022-11-20T06:36:55;100150.45;;;11.71;53.63
70916;BME280;58557;50.982;-3.222;2022-11-20T06:39:20;100146.04;;;10.23;55.92
70916;BME280;58557;50.982;-3.222;2022-11-20T06:41:49;100153.41;;;10.76;55.48
70916;BME280;58557;50.982;-3.222;2022-11-20T06:44:09;100144.45;;;10.79;55.60
70916;BME280;58557;50.982;-3.222;2022-11-20T06:46:35;100140.35;;;11.01;56.05
70916;BME280;58557;50.982;-3.222;2022-11-20T06:49:00;100140.57;;;11.05;55.34
70916;BME280;58557;50.982;-3.222;2022-11-20T06:51:25;100142.98;;;11.00;55.95
70916;BME280;58557;50.982;-3.222;2022-11-20T06:53:50;100139.96;;;10.73;56.69
70916;BME280;58557;50.982;-3.222;2022-11-20T06:56:20;100134.95;;;10.64;55.82
70916;BME280;58557;50.982;-3.222;2022-11-20T06:58:41;100141.05;;;10.38;56.94
70916;BME280;58557;50.982;-3.222;2022-11-20T07:01:09;100150.85;;;9.81;58.59
70916;BME280;58557;50.982;-3.222;2022-11-20T07:03:32;100151.38;;;9.65;60.12
70916;BME280;58557;50.982;-3.222;2022-11-20T07:06:03;100164.82;;;8.12;63.32
70916;BME280;58557;50.982;-3.222;2022-11-20T07:08:23;100171.72;;;8.07;65.51
70916;BME280;58557;50.982;-3.222;2022-11-20T07:10:47;100181.45;;;8.98;63.54
70916;BME280;58557;50.982;-3.222;2022-11-20T07:13:17;100203.04;;;7.13;68.03
70916;BME280;58557;50.982;-3.222;2022-11-20T07:15:38;100226.21;;;6.02;73.76
70916;BME280;58557;50.982;-3.222;2022-11-20T07:18:09;100211.63;;;7.22;74.73
70916;BME280;58557;50.982;-3.222;2022-11-20T07:20:34;100210.61;;;6.95;73.01
70916;BME280;58557;50.982;-3.222;2022-11-20T07:22:59;100204.21;;;7.71;74.31
70916;BME280;58557;50.982;-3.222;2022-11-20T07:25:20;100214.43;;;8.63;67.13
70916;BME280;58557;50.982;-3.222;2022-11-20T07:27:50;100203.01;;;9.54;64.03
70916;BME280;58557;50.982;-3.222;2022-11-20T07:30:16;100189.91;;;10.25;62.80
70916;BME280;58557;50.982;-3.222;2022-11-20T07:32:35;100197.23;;;10.72;60.66
70916;BME280;58557;50.982;-3.222;2022-11-20T07:35:03;100201.70;;;10.04;61.29
70916;BME280;58557;50.982;-3.222;2022-11-20T07:37:27;100213.87;;;10.47;60.77
70916;BME280;58557;50.982;-3.222;2022-11-20T07:39:53;100223.56;;;10.42;58.52
70916;BME280;58557;50.982;-3.222;2022-11-20T07:42:18;100221.97;;;9.93;60.65
70916;BME280;58557;50.982;-3.222;2022-11-20T07:44:43;100218.65;;;10.44;60.91
70916;BME280;58557;50.982;-3.222;2022-11-20T07:47:09;100217.28;;;10.27;58.65
70916;BME280;58557;50.982;-3.222;2022-11-20T07:49:34;100224.60;;;10.88;57.69
70916;BME280;58557;50.982;-3.222;2022-11-20T07:51:59;100227.70;;;10.26;58.43
70916;BME280;58557;50.982;-3.222;2022-11-20T07:54:30;100230.27;;;10.29;57.23
70916;BME280;58557;50.982;-3.222;2022-11-20T07:56:50;100227.34;;;11.25;55.76
70916;BME280;58557;50.982;-3.222;2022-11-20T07:59:16;100229.26;;;10.98;54.40
70916;BME280;58557;50.982;-3.222;2022-11-20T08:01:41;100236.04;;;11.96;54.45
70916;BME280;58557;50.982;-3.222;2022-11-20T08:04:11;100235.12;;;11.73;53.63
70916;BME280;58557;50.982;-3.222;2022-11-20T08:06:31;100236.95;;;12.10;52.36
70916;BME280;58557;50.982;-3.222;2022-11-20T08:08:57;100243.43;;;12.04;52.20
70916;BME280;58557;50.982;-3.222;2022-11-20T08:11:22;100254.99;;;9.28;59.92
70916;BME280;58557;50.982;-3.222;2022-11-20T08:13:52;100249.22;;;10.72;55.66
70916;BME280;58557;50.982;-3.222;2022-11-20T08:16:13;100247.08;;;9.65;59.54
70916;BME280;58557;50.982;-3.222;2022-11-20T08:18:39;100245.29;;;11.19;57.05
70916;BME280;58557;50.982;-3.222;2022-11-20T08:21:06;100248.24;;;10.71;55.94
70916;BME280;58557;50.982;-3.222;2022-11-20T08:23:30;100249.14;;;12.22;56.22
70916;BME280;58557;50.982;-3.222;2022-11-20T08:26:01;100252.94;;;11.73;55.46
70916;BME280;58557;50.982;-3.222;2022-11-20T08:28:21;100256.42;;;11.44;55.46
70916;BME280;58557;50.982;-3.222;2022-11-20T08:30:47;100255.30;;;11.79;54.20
70916;BME280;58557;50.982;-3.222;2022-11-20T08:33:12;100247.99;;;12.58;53.29
70916;BME280;58557;50.982;-3.222;2022-11-20T08:35:43;100256.66;;;10.69;55.62
70916;BME280;58557;50.982;-3.222;2022-11-20T08:38:04;100261.52;;;11.34;57.13
70916;BME280;58557;50.982;-3.222;2022-11-20T08:40:30;100264.26;;;11.83;54.85
70916;BME280;58557;50.982;-3.222;2022-11-20T08:42:55;100268.34;;;11.29;55.51
70916;BME280;58557;50.982;-3.222;2022-11-20T08:45:21;100267.31;;;11.97;56.46
70916;BME280;58557;50.982;-3.222;2022-11-20T08:47:46;100270.15;;;12.26;55.07
70916;BME280;58557;50.982;-3.222;2022-11-20T08:50:17;100271.43;;;12.23;53.95
70916;BME280;58557;50.982;-3.222;2022-11-20T08:52:37;100271.55;;;11.25;57.73
70916;BME280;58557;50.982;-3.222;2022-11-20T08:55:04;100279.95;;;11.46;58.58
70916;BME280;58557;50.982;-3.222;2022-11-20T08:57:31;100280.22;;;11.88;56.29
70916;BME280;58557;50.982;-3.222;2022-11-20T08:59:59;100279.12;;;12.03;53.85
70916;BME280;58557;50.982;-3.222;2022-11-20T09:02:25;100279.97;;;12.64;54.48
70916;BME280;58557;50.982;-3.222;2022-11-20T09:04:46;100281.84;;;12.06;54.89
70916;BME280;58557;50.982;-3.222;2022-11-20T09:07:16;100282.05;;;12.73;54.14
70916;BME280;58557;50.982;-3.222;2022-11-20T09:09:36;100283.25;;;12.90;53.39
70916;BME280;58557;50.982;-3.222;2022-11-20T09:12:02;100289.49;;;11.65;57.48
70916;BME280;58557;50.982;-3.222;2022-11-20T09:14:27;100283.20;;;12.01;55.08
70916;BME280;58557;50.982;-3.222;2022-11-20T09:16:54;100279.52;;;12.75;52.44
70916;BME280;58557;50.982;-3.222;2022-11-20T09:19:18;100276.67;;;12.22;55.46
70916;BME280;58557;50.982;-3.222;2022-11-20T09:21:44;100274.61;;;12.47;55.74
70916;BME280;58557;50.982;-3.222;2022-11-20T09:24:15;100270.98;;;12.05;56.42
70916;BME280;58557;50.982;-3.222;2022-11-20T09:26:40;100274.57;;;11.88;57.46
70916;BME280;58557;50.982;-3.222;2022-11-20T09:29:01;100276.40;;;12.45;56.47
70916;BME280;58557;50.982;-3.222;2022-11-20T09:31:27;100275.68;;;13.06;56.19
70916;BME280;58557;50.982;-3.222;2022-11-20T09:33:57;100278.62;;;12.27;55.93
70916;BME280;58557;50.982;-3.222;2022-11-20T09:36:23;100279.85;;;12.34;55.03
70916;BME280;58557;50.982;-3.222;2022-11-20T09:38:44;100274.31;;;12.88;55.64
70916;BME280;58557;50.982;-3.222;2022-11-20T09:43:46;100272.48;;;12.53;54.43
70916;BME280;58557;50.982;-3.222;2022-11-20T09:46:09;100272.57;;;12.85;54.51
70916;BME280;58557;50.982;-3.222;2022-11-20T09:48:38;100277.60;;;12.64;54.15
70916;BME280;58557;50.982;-3.222;2022-11-20T09:50:55;100276.08;;;11.83;55.28
70916;BME280;58557;50.982;-3.222;2022-11-20T09:53:29;100275.81;;;12.97;53.68
70916;BME280;58557;50.982;-3.222;2022-11-20T09:55:42;100272.83;;;13.56;52.56
70916;BME280;58557;50.982;-3.222;2022-11-20T09:58:19;100271.07;;;11.18;55.17
70916;BME280;58557;50.982;-3.222;2022-11-20T10:00:35;100267.69;;;12.01;54.44
70916;BME280;58557;50.982;-3.222;2022-11-20T10:03:11;100265.89;;;13.26;53.55
70916;BME280;58557;50.982;-3.222;2022-11-20T10:05:27;100265.06;;;13.22;53.72
70916;BME280;58557;50.982;-3.222;2022-11-20T10:07:55;100272.56;;;12.38;56.25
70916;BME280;58557;50.982;-3.222;2022-11-20T10:10:18;100268.30;;;11.83;56.10
70916;BME280;58557;50.982;-3.222;2022-11-20T10:12:52;100262.86;;;11.25;55.22
70916;BME280;58557;50.982;-3.222;2022-11-20T10:15:21;100266.92;;;12.63;53.57
70916;BME280;58557;50.982;-3.222;2022-11-20T10:22:38;100282.64;;;12.33;55.25
70916;BME280;58557;50.982;-3.222;2022-11-20T10:24:56;100286.02;;;11.79;54.67
70916;BME280;58557;50.982;-3.222;2022-11-20T10:27:32;100290.28;;;11.39;55.52
70916;BME280;58557;50.982;-3.222;2022-11-20T10:29:43;100289.84;;;11.75;56.23
70916;BME280;58557;50.982;-3.222;2022-11-20T10:32:11;100292.85;;;12.70;54.44
70916;BME280;58557;50.982;-3.222;2022-11-20T10:34:40;100293.66;;;11.41;55.61
70916;BME280;58557;50.982;-3.222;2022-11-20T10:37:02;100291.00;;;12.64;54.04
70916;BME280;58557;50.982;-3.222;2022-11-20T10:39:32;100297.30;;;13.38;52.86
70916;BME280;58557;50.982;-3.222;2022-11-20T10:41:52;100298.21;;;12.35;53.79
70916;BME280;58557;50.982;-3.222;2022-11-20T10:44:17;100310.05;;;13.12;54.29
70916;BME280;58557;50.982;-3.222;2022-11-20T10:46:44;100310.90;;;12.78;54.59
70916;BME280;58557;50.982;-3.222;2022-11-20T10:49:12;100307.84;;;12.15;54.97
70916;BME280;58557;50.982;-3.222;2022-11-20T10:51:39;100311.09;;;13.17;52.97
70916;BME280;58557;50.982;-3.222;2022-11-20T10:54:08;100309.15;;;13.34;52.01
70916;BME280;58557;50.982;-3.222;2022-11-20T10:56:27;100309.42;;;13.69;52.59
70916;BME280;58557;50.982;-3.222;2022-11-20T11:01:16;100299.19;;;13.49;53.96
70916;BME280;58557;50.982;-3.222;2022-11-20T11:03:45;100297.34;;;13.57;53.74
70916;BME280;58557;50.982;-3.222;2022-11-20T11:06:10;100285.60;;;13.48;52.95
70916;BME280;58557;50.982;-3.222;2022-11-20T11:08:36;100285.30;;;14.49;50.56
70916;BME280;58557;50.982;-3.222;2022-11-20T11:11:00;100277.66;;;13.98;51.45
70916;BME280;58557;50.982;-3.222;2022-11-20T11:13:24;100269.75;;;13.81;51.05
70916;BME280;58557;50.982;-3.222;2022-11-20T11:15:49;100274.02;;;13.47;52.42
70916;BME280;58557;50.982;-3.222;2022-11-20T11:18:23;100276.08;;;14.44;51.92
70916;BME280;58557;50.982;-3.222;2022-11-20T11:23:22;100265.63;;;13.34;53.10
70916;BME280;58557;50.982;-3.222;2022-11-20T11:25:33;100268.97;;;13.58;52.64
70916;BME280;58557;50.982;-3.222;2022-11-20T11:28:03;100278.80;;;13.41;52.68
70916;BME280;58557;50.982;-3.222;2022-11-20T11:30:28;100279.04;;;12.99;54.71
70916;BME280;58557;50.982;-3.222;2022-11-20T11:32:48;100282.65;;;13.80;53.48
70916;BME280;58557;50.982;-3.222;2022-11-20T11:35:22;100286.45;;;13.47;53.19
70916;BME280;58557;50.982;-3.222;2022-11-20T11:37:39;100287.15;;;12.81;53.71
70916;BME280;58557;50.982;-3.222;2022-11-20T11:40:08;100292.46;;;13.93;52.95
70916;BME280;58557;50.982;-3.222;2022-11-20T11:42:30;100291.91;;;13.67;52.87
70916;BME280;58557;50.982;-3.222;2022-11-20T11:44:58;100302.39;;;12.07;54.33
70916;BME280;58557;50.982;-3.222;2022-11-20T11:47:25;100305.14;;;12.91;53.97
70916;BME280;58557;50.982;-3.222;2022-11-20T11:50:00;100302.08;;;12.04;56.54
70916;BME280;58557;50.982;-3.222;2022-11-20T11:52:18;100293.02;;;11.59;59.41
70916;BME280;58557;50.982;-3.222;2022-11-20T11:54:45;100269.89;;;10.17;60.12
70916;BME280;58557;50.982;-3.222;2022-11-20T11:57:11;100239.85;;;10.14;60.83
70916;BME280;58557;50.982;-3.222;2022-11-20T11:59:39;100228.47;;;9.77;61.92
70916;BME280;58557;50.982;-3.222;2022-11-20T12:01:59;100234.31;;;9.20;64.17
70916;BME280;58557;50.982;-3.222;2022-11-20T12:04:33;100231.71;;;8.52;64.86
70916;BME280;58557;50.982;-3.222;2022-11-20T12:06:51;100244.57;;;10.37;64.25
70916;BME280;58557;50.982;-3.222;2022-11-20T12:09:13;100245.48;;;10.69;63.07
70916;BME280;58557;50.982;-3.222;2022-11-20T12:11:49;100249.36;;;10.10;60.80
70916;BME280;58557;50.982;-3.222;2022-11-20T12:14:11;100245.51;;;9.70;62.06
70916;BME280;58557;50.982;-3.222;2022-11-20T12:16:35;100242.42;;;10.19;62.32
70916;BME280;58557;50.982;-3.222;2022-11-20T12:19:01;100249.48;;;9.62;63.11
70916;BME280;58557;50.982;-3.222;2022-11-20T12:21:30;100239.01;;;11.19;58.73
70916;BME280;58557;50.982;-3.222;2022-11-20T12:23:58;100230.53;;;10.76;57.90
70916;BME280;58557;50.982;-3.222;2022-11-20T12:26:31;100230.48;;;10.87;59.49
70916;BME280;58557;50.982;-3.222;2022-11-20T12:28:48;100218.83;;;11.97;57.48
70916;BME280;58557;50.982;-3.222;2022-11-20T12:31:18;100216.57;;;10.28;58.62
70916;BME280;58557;50.982;-3.222;2022-11-20T12:33:46;100215.17;;;9.10;62.21
70916;BME280;58557;50.982;-3.222;2022-11-20T12:36:07;100211.87;;;10.12;61.10
70916;BME280;58557;50.982;-3.222;2022-11-20T12:38:39;100209.24;;;9.50;62.54
70916;BME280;58557;50.982;-3.222;2022-11-20T12:40:53;100200.53;;;9.92;60.44
70916;BME280;58557;50.982;-3.222;2022-11-20T12:43:18;100209.20;;;9.22;62.78
70916;BME280;58557;50.982;-3.222;2022-11-20T12:46:05;100203.33;;;9.67;61.88